Time;durP1;ratioP1;P1;durP2;ratioP2;P2;SDS_P1;SDS_P2;PMS_P1;PMS_P2;Temp;Humidity;BMP_temperature;BMP_pressure;BME280_temperature;BME280_humidity;BME280_pressure;Samples;Min_cycle;Max_cycle;Signal;HPM_P1;HPM_P2
2022/11/17 00:01:20;;;;;;;1.42;1.10;;;;;;;18.91;24.96;102412.72;5011976;28;20073;-45
2022/11/17 00:03:47;;;;;;;3.95;1.33;;;;;;;18.76;25.67;102407.63;5012008;28;20026;-47
2022/11/17 00:06:14;;;;;;;1.27;1.10;;;;;;;18.66;25.83;102407.28;5012301;28;20034;-45
2022/11/17 00:08:41;;;;;;;2.75;1.08;;;;;;;18.60;25.98;102413.56;5012126;28;20034;-46
2022/11/17 00:11:07;;;;;;;2.47;1.20;;;;;;;18.52;26.40;102411.97;5012053;28;20021;-45
2022/11/17 00:16:20;;;;;;;1.63;0.98;;;;;;;18.33;26.53;102423.81;5012503;28;20128;-46
2022/11/17 00:21:31;;;;;;;3.38;1.00;;;;;;;18.13;27.81;102423.94;5012238;28;20095;-45
2022/11/17 00:23:58;;;;;;;2.15;1.08;;;;;;;18.03;28.31;102427.13;5011620;28;20466;-49
2022/11/17 00:26:30;;;;;;;2.15;1.20;;;;;;;17.92;28.71;102430.50;5011871;28;20034;-47
2022/11/17 00:28:58;;;;;;;1.70;1.20;;;;;;;17.84;28.84;102437.00;5029858;28;20026;-45
2022/11/17 00:34:17;;;;;;;3.95;1.02;;;;;;;17.64;29.79;102437.06;5042583;28;20075;-46
2022/11/17 00:36:49;;;;;;;3.13;1.10;;;;;;;17.47;30.32;102444.00;5029052;28;20055;-49
2022/11/17 00:39:17;;;;;;;2.70;1.10;;;;;;;17.36;30.76;102450.88;5029635;28;20022;-46
2022/11/17 00:41:43;;;;;;;6.72;1.65;;;;;;;17.28;31.30;102439.47;5029228;28;20080;-47
2022/11/17 00:44:10;;;;;;;3.45;1.60;;;;;;;17.10;31.91;102440.97;5031358;28;20033;-46
2022/11/17 00:46:37;;;;;;;4.88;1.45;;;;;;;17.28;33.80;102442.19;5018314;28;20058;-45
2022/11/17 00:49:05;;;;;;;3.33;2.13;;;;;;;17.01;35.71;102444.91;5011464;28;20076;-45
2022/11/17 00:51:32;;;;;;;2.65;1.70;;;;;;;16.98;36.79;102448.03;5011194;28;20310;-46
2022/11/17 00:53:59;;;;;;;5.15;1.63;;;;;;;16.92;38.13;102459.69;5011561;28;20084;-47
2022/11/17 00:56:26;;;;;;;2.88;1.80;;;;;;;16.82;40.02;102461.97;5011451;28;20064;-48
2022/11/17 00:58:52;;;;;;;5.20;1.58;;;;;;;16.54;40.80;102454.84;5011495;28;20079;-46
2022/11/17 01:01:19;;;;;;;3.85;1.40;;;;;;;16.56;42.64;102462.78;5011367;28;20030;-46
2022/11/17 01:03:46;;;;;;;3.03;1.63;;;;;;;16.22;43.69;102463.75;5011541;28;20478;-46
2022/11/17 01:06:15;;;;;;;3.47;1.40;;;;;;;16.10;43.87;102466.19;5011522;28;20498;-45
2022/11/17 01:08:42;;;;;;;3.80;1.88;;;;;;;15.70;44.75;102460.63;5012842;28;20080;-45
2022/11/17 01:11:17;;;;;;;5.18;1.70;;;;;;;15.83;44.35;102470.69;5015114;28;20466;-47
2022/11/17 01:13:44;;;;;;;;;;;;;;;15.71;44.61;102461.47;5026420;28;20022;-48
2022/11/17 01:16:13;;;;;;;3.25;1.67;;;;;;;15.55;44.59;102468.84;5035195;28;19992;-50
2022/11/17 01:18:40;;;;;;;2.92;1.38;;;;;;;15.37;44.40;102462.28;5023313;28;20029;-49
2022/11/17 01:21:11;;;;;;;3.35;1.60;;;;;;;15.37;42.87;102467.69;5016651;28;20096;-49
2022/11/17 01:23:40;;;;;;;3.83;1.88;;;;;;;15.29;41.52;102474.09;5033913;28;20053;-47
2022/11/17 01:26:09;;;;;;;2.85;1.65;;;;;;;15.19;40.83;102476.28;5032319;28;20057;-50
2022/11/17 01:28:36;;;;;;;4.45;2.25;;;;;;;15.05;40.62;102481.59;5034988;28;20013;-51
2022/11/17 01:31:06;;;;;;;4.82;2.30;;;;;;;14.97;40.44;102483.59;5034350;28;20072;-46
2022/11/17 01:33:32;;;;;;;3.90;2.33;;;;;;;14.84;40.51;102484.31;5034316;28;20362;-46
2022/11/17 01:36:12;;;;;;;9.63;2.40;;;;;;;14.75;40.32;102489.00;5034213;28;20021;-48
2022/11/17 01:38:38;;;;;;;3.33;2.15;;;;;;;14.66;40.80;102497.44;5032149;28;20029;-47
2022/11/17 01:41:11;;;;;;;5.90;1.80;;;;;;;14.51;40.97;102492.94;5033496;28;20029;-48
2022/11/17 01:43:48;;;;;;;3.35;2.13;;;;;;;14.44;41.04;102494.69;5033359;28;20036;-47
2022/11/17 01:46:38;;;;;;;3.88;1.92;;;;;;;14.11;41.55;102498.88;5031286;28;20548;-48
2022/11/17 01:49:13;;;;;;;3.70;1.48;;;;;;;14.08;41.48;102501.94;5033485;28;20040;-47
2022/11/17 01:51:45;;;;;;;;;;;;;;;13.98;41.49;102503.06;5031285;28;20493;-46
2022/11/17 01:54:15;;;;;;;3.22;1.50;;;;;;;13.93;41.59;102500.09;5033106;28;19988;-46
2022/11/17 01:56:45;;;;;;;2.97;2.40;;;;;;;13.80;42.04;102507.16;5032798;28;20041;-46
2022/11/17 01:59:22;;;;;;;3.38;2.88;;;;;;;13.85;41.86;102499.38;5034220;28;20030;-46
2022/11/17 02:01:55;;;;;;;6.38;3.08;;;;;;;13.67;42.03;102497.91;5034277;28;20037;-48
2022/11/17 02:04:34;;;;;;;4.28;2.78;;;;;;;13.31;41.69;102500.47;5032990;28;20034;-50
2022/11/17 02:07:25;;;;;;;4.15;2.58;;;;;;;13.27;41.62;102491.13;5014360;28;20116;-48
2022/11/17 02:09:53;;;;;;;4.40;2.30;;;;;;;13.17;41.57;102488.66;5031587;28;20482;-47
2022/11/17 02:12:23;;;;;;;5.13;2.53;;;;;;;12.82;41.93;102491.97;5030974;28;20038;-48
2022/11/17 02:14:50;;;;;;;4.05;1.90;;;;;;;12.28;42.71;102498.25;5005601;28;20034;-47
2022/11/17 02:17:20;;;;;;;3.85;1.80;;;;;;;11.94;42.96;102487.00;5025475;28;20033;-47
2022/11/17 02:20:01;;;;;;;2.95;2.03;;;;;;;11.95;42.87;102496.75;5031052;28;20448;-49
2022/11/17 02:22:37;;;;;;;4.32;1.98;;;;;;;11.62;43.62;102489.63;5033340;28;20033;-45
2022/11/17 02:25:25;;;;;;;3.28;1.77;;;;;;;11.77;43.15;102492.41;5029554;28;20088;-45
2022/11/17 02:28:10;;;;;;;3.28;1.17;;;;;;;11.62;43.25;102484.25;5034073;28;20029;-47
2022/11/17 02:31:08;;;;;;;1.58;1.38;;;;;;;11.47;43.22;102488.66;5016402;28;20072;-45
2022/11/17 02:33:54;;;;;;;2.30;1.23;;;;;;;11.64;43.12;102489.44;5033738;28;20498;-46
2022/11/17 02:36:31;;;;;;;2.35;1.23;;;;;;;11.52;43.17;102490.81;5033885;28;20537;-49
2022/11/17 02:39:12;;;;;;;2.40;1.70;;;;;;;11.42;43.85;102491.00;5033453;28;20029;-45
2022/11/17 02:42:06;;;;;;;2.58;1.30;;;;;;;11.59;43.62;102489.09;5033485;28;20033;-48
2022/11/17 02:44:42;;;;;;;2.88;2.10;;;;;;;11.77;43.54;102492.41;5034149;28;20036;-45
2022/11/17 02:47:22;;;;;;;2.45;1.90;;;;;;;11.61;43.44;102490.63;5033754;28;20033;-45
2022/11/17 02:50:07;;;;;;;3.33;1.80;;;;;;;11.58;43.60;102495.50;5033620;28;20029;-46
2022/11/17 02:52:33;;;;;;;2.28;1.52;;;;;;;11.44;44.03;102497.03;5033444;28;20030;-44
2022/11/17 02:55:05;;;;;;;3.45;1.88;;;;;;;11.52;43.55;102501.53;5033412;28;20097;-45
2022/11/17 02:57:39;;;;;;;3.92;2.22;;;;;;;11.85;42.54;102500.47;5019879;28;20086;-48
2022/11/17 03:00:12;;;;;;;6.20;3.15;;;;;;;11.52;43.21;102504.22;5013193;28;20026;-45
2022/11/17 03:02:38;;;;;;;6.22;3.50;;;;;;;11.41;43.70;102499.22;5015879;28;20033;-48
2022/11/17 03:05:26;;;;;;;3.53;1.90;;;;;;;10.96;44.32;102505.97;5032947;28;20022;-47
2022/11/17 03:08:16;;;;;;;2.65;1.50;;;;;;;11.01;44.00;102498.28;5033081;28;20029;-46
2022/11/17 03:11:02;;;;;;;1.85;1.60;;;;;;;11.03;44.26;102501.59;5032709;28;20036;-47
2022/11/17 03:13:58;;;;;;;4.90;1.40;;;;;;;11.11;44.30;102501.63;5039812;22;20082;-47
2022/11/17 03:16:45;;;;;;;3.50;1.50;;;;;;;11.19;42.99;102496.25;5062047;28;20149;-46
2022/11/17 03:19:26;;;;;;;2.70;1.80;;;;;;;11.21;43.27;102499.56;5065774;28;20124;-47
2022/11/17 03:22:20;;;;;;;6.32;2.35;;;;;;;11.22;43.51;102495.91;5071071;28;20130;-46
2022/11/17 03:24:54;;;;;;;6.10;2.97;;;;;;;11.21;44.12;102499.56;5072840;28;20035;-44
2022/11/17 03:27:33;;;;;;;6.35;3.35;;;;;;;11.43;45.39;102500.72;5066323;28;20029;-46
2022/11/17 03:30:04;;;;;;;7.50;3.38;;;;;;;11.63;45.07;102503.84;5053833;28;20025;-44
2022/11/17 03:32:35;;;;;;;5.85;3.15;;;;;;;11.32;45.80;102496.53;5054945;28;20062;-46
2022/11/17 03:35:15;;;;;;;5.82;3.20;;;;;;;11.13;46.31;102501.44;5052733;28;20389;-48
2022/11/17 03:37:49;;;;;;;5.60;3.35;;;;;;;11.04;46.61;102501.44;5070399;28;20033;-45
2022/11/17 03:40:20;;;;;;;7.38;3.60;;;;;;;11.01;46.89;102493.75;5054713;28;20028;-47
2022/11/17 03:42:52;;;;;;;8.95;4.13;;;;;;;10.99;47.59;102492.22;5057421;28;20026;-45
2022/11/17 03:45:27;;;;;;;7.82;3.28;;;;;;;10.92;47.52;102500.09;5072397;28;20125;-48
2022/11/17 03:48:02;;;;;;;7.25;3.83;;;;;;;10.80;47.45;102494.25;5053146;28;20051;-47
2022/11/17 03:50:39;;;;;;;5.88;2.85;;;;;;;10.77;46.67;102486.56;5052819;28;20037;-47
2022/11/17 03:53:06;;;;;;;5.47;3.13;;;;;;;10.75;47.22;102487.72;5052197;28;20100;-47
2022/11/17 03:55:57;;;;;;;5.78;2.25;;;;;;;10.66;46.87;102486.03;5054330;28;20032;-46
2022/11/17 03:58:30;;;;;;;3.40;1.67;;;;;;;10.54;45.56;102480.16;5064477;28;20044;-44
2022/11/17 04:00:59;;;;;;;3.03;1.52;;;;;;;10.57;45.30;102480.69;5062855;28;20159;-45
2022/11/17 04:03:32;;;;;;;4.25;1.58;;;;;;;10.50;44.96;102484.19;5065016;28;20116;-49
2022/11/17 04:06:00;;;;;;;2.58;1.50;;;;;;;10.50;44.55;102492.22;5052693;28;20031;-46
2022/11/17 04:08:29;;;;;;;3.08;1.30;;;;;;;10.26;43.77;102493.00;5052439;28;20134;-48
2022/11/17 04:16:27;;;;;;;6.40;2.00;;;;;;;10.46;44.33;102499.75;5052215;28;20071;-45
2022/11/17 04:18:53;;;;;;;3.40;2.20;;;;;;;10.42;43.00;102505.59;5051938;28;20028;-47
2022/11/17 04:21:19;;;;;;;4.65;2.20;;;;;;;10.36;43.51;102500.88;5052346;28;20036;-44
2022/11/17 04:23:45;;;;;;;5.25;2.03;;;;;;;10.17;44.04;102502.00;5052395;28;20078;-47
2022/11/17 04:28:56;;;;;;;1.50;1.40;;;;;;;10.20;43.89;102501.66;5072532;28;20032;-46
2022/11/17 04:31:27;;;;;;;3.05;1.38;;;;;;;10.28;43.49;102502.56;5055096;28;20036;-47
2022/11/17 04:33:56;;;;;;;2.78;1.50;;;;;;;10.26;44.01;102509.88;5051796;28;20029;-50
2022/11/17 04:36:44;;;;;;;4.40;2.00;;;;;;;10.46;44.65;102510.44;5051796;28;20500;-47
2022/11/17 04:39:12;;;;;;;5.93;2.88;;;;;;;10.29;46.18;102509.56;5052164;28;20065;-45
2022/11/17 04:42:01;;;;;;;7.30;3.60;;;;;;;10.13;47.04;102509.50;5070905;28;20029;-46
2022/11/17 04:44:30;;;;;;;7.55;3.85;;;;;;;10.08;47.45;102513.66;5051367;28;20028;-48
2022/11/17 04:46:56;;;;;;;5.63;3.28;;;;;;;10.07;47.66;102510.16;5051443;28;20090;-45
2022/11/17 04:49:24;;;;;;;5.50;2.60;;;;;;;9.99;47.38;102515.44;5063894;28;20029;-45
2022/11/17 04:51:52;;;;;;;4.00;1.80;;;;;;;9.88;45.44;102515.72;5070684;28;20112;-45
2022/11/17 04:54:23;;;;;;;2.65;1.58;;;;;;;9.79;45.09;102513.03;5071337;28;20024;-49
2022/11/17 04:56:50;;;;;;;2.50;1.52;;;;;;;9.84;45.16;102514.41;5066172;28;20040;-45
2022/11/17 04:59:17;;;;;;;5.30;1.55;;;;;;;9.81;44.97;102512.88;5071560;28;20039;-48
2022/11/17 05:01:43;;;;;;;1.95;1.40;;;;;;;9.86;44.33;102515.06;5053700;28;20083;-48
2022/11/17 05:04:12;;;;;;;1.38;1.23;;;;;;;9.86;44.97;102515.06;5051133;28;20029;-45
2022/11/17 05:06:41;;;;;;;2.63;1.38;;;;;;;9.87;45.13;102524.75;5067837;28;20060;-44
2022/11/17 05:09:13;;;;;;;2.10;1.60;;;;;;;9.82;45.34;102522.56;5070519;28;20036;-45
2022/11/17 05:14:25;;;;;;;2.00;1.30;;;;;;;9.75;45.01;102527.72;5071265;28;20450;-46
2022/11/17 05:17:04;;;;;;;2.95;1.58;;;;;;;9.72;44.87;102528.06;5070120;28;20029;-46
2022/11/17 05:19:34;;;;;;;2.65;1.38;;;;;;;9.76;45.13;102537.41;5054571;28;20104;-47
2022/11/17 05:22:01;;;;;;;1.60;1.40;;;;;;;9.64;45.62;102537.84;5069509;28;20024;-46
2022/11/17 05:24:27;;;;;;;2.60;1.58;;;;;;;9.60;45.54;102539.16;5071236;28;20023;-46
2022/11/17 05:26:53;;;;;;;1.83;1.30;;;;;;;9.53;45.81;102538.94;5066331;28;20056;-45
2022/11/17 05:29:21;;;;;;;1.45;1.10;;;;;;;9.53;45.38;102537.13;5046186;28;20385;-49
2022/11/17 05:31:48;;;;;;;2.00;1.20;;;;;;;9.50;45.30;102537.44;5066474;28;20120;-45
2022/11/17 05:34:16;;;;;;;1.58;1.17;;;;;;;9.38;45.93;102538.69;5069251;28;20512;-46
2022/11/17 05:36:42;;;;;;;2.33;1.20;;;;;;;9.40;45.81;102536.69;5071137;28;20025;-47
2022/11/17 05:39:09;;;;;;;4.43;1.75;;;;;;;9.37;45.96;102542.34;5070110;28;20116;-45
2022/11/17 05:41:38;;;;;;;2.97;1.20;;;;;;;9.22;46.54;102542.09;5070819;28;20098;-46
2022/11/17 05:44:05;;;;;;;1.98;1.10;;;;;;;9.14;46.47;102538.50;5070032;28;20063;-45
2022/11/17 05:46:31;;;;;;;1.73;1.25;;;;;;;8.85;46.76;102544.09;5070888;28;20099;-45
2022/11/17 05:48:57;;;;;;;2.80;1.20;;;;;;;8.85;47.26;102550.28;5069653;28;20033;-47
2022/11/17 05:51:24;;;;;;;1.98;1.00;;;;;;;8.53;47.59;102544.63;5070209;28;20033;-45
2022/11/17 05:53:50;;;;;;;1.35;1.05;;;;;;;8.88;47.54;102546.47;5069943;28;20033;-44
2022/11/17 05:56:39;;;;;;;1.83;1.00;;;;;;;8.94;47.20;102557.38;5072848;28;20028;-46
2022/11/17 05:59:28;;;;;;;3.95;1.50;;;;;;;8.95;47.06;102550.22;5073563;28;20032;-46
2022/11/17 06:02:00;;;;;;;3.75;1.80;;;;;;;8.86;47.29;102546.63;5073142;28;20427;-46
2022/11/17 06:04:27;;;;;;;4.38;1.60;;;;;;;8.73;46.95;102555.03;5074134;28;20127;-48
2022/11/17 06:06:58;;;;;;;1.75;1.27;;;;;;;8.55;47.86;102547.97;5073387;28;20031;-46
2022/11/17 06:09:30;;;;;;;3.90;1.40;;;;;;;8.64;47.45;102545.25;5073708;28;20051;-47
2022/11/17 06:11:56;;;;;;;2.13;1.20;;;;;;;8.63;47.87;102540.06;5073651;28;20372;-43
2022/11/17 06:14:22;;;;;;;2.38;1.10;;;;;;;8.34;48.15;102530.38;5073030;28;20044;-45
2022/11/17 06:16:51;;;;;;;2.15;1.48;;;;;;;8.54;48.12;102539.13;5073846;28;20020;-45
2022/11/17 06:19:26;;;;;;;3.63;1.70;;;;;;;8.66;47.57;102537.06;5074008;28;20358;-45
2022/11/17 06:21:52;;;;;;;2.08;1.40;;;;;;;8.64;47.55;102533.72;5068889;28;20363;-47
2022/11/17 06:24:19;;;;;;;2.63;1.45;;;;;;;8.51;48.37;102534.09;5064611;28;20035;-45
2022/11/17 06:26:46;;;;;;;2.25;1.33;;;;;;;8.56;47.99;102531.00;5072640;28;20031;-47
2022/11/17 06:29:13;;;;;;;1.95;1.27;;;;;;;8.50;48.13;102534.25;5073471;28;20067;-45
2022/11/17 06:31:42;;;;;;;1.95;1.15;;;;;;;8.62;47.89;102533.88;5072950;28;20017;-45
2022/11/17 06:34:08;;;;;;;2.70;1.20;;;;;;;8.54;47.81;102541.78;5073227;28;20111;-46
2022/11/17 06:36:34;;;;;;;2.17;1.13;;;;;;;8.52;47.51;102529.59;5054127;28;20028;-45
2022/11/17 06:39:01;;;;;;;1.88;1.25;;;;;;;8.55;47.84;102532.81;5073311;28;20044;-44
2022/11/17 06:41:27;;;;;;;1.83;1.17;;;;;;;8.57;47.92;102530.81;5072333;28;20111;-45
2022/11/17 06:43:53;;;;;;;2.78;1.10;;;;;;;8.46;48.23;102528.38;5073473;28;20036;-46
2022/11/17 06:46:19;;;;;;;2.45;1.17;;;;;;;8.42;48.41;102518.97;5072286;28;20333;-46
2022/11/17 06:48:45;;;;;;;1.35;1.10;;;;;;;8.37;48.63;102516.75;5073453;28;20036;-45
2022/11/17 06:51:12;;;;;;;1.85;1.52;;;;;;;8.26;49.41;102516.94;5072281;28;20036;-45
2022/11/17 06:53:38;;;;;;;2.30;1.10;;;;;;;8.26;49.65;102511.59;5073351;28;20032;-49
2022/11/17 06:56:07;;;;;;;1.40;1.02;;;;;;;8.09;50.39;102513.25;5061922;28;20044;-47
2022/11/17 06:58:35;;;;;;;1.88;1.30;;;;;;;8.28;50.00;102508.81;5071768;28;20085;-46
2022/11/17 07:01:09;;;;;;;2.00;1.10;;;;;;;8.38;49.69;102505.13;5073190;28;20028;-46
2022/11/17 07:03:37;;;;;;;2.17;1.20;;;;;;;8.42;49.83;102501.16;5071933;28;20031;-45
2022/11/17 07:06:05;;;;;;;3.45;1.70;;;;;;;8.56;49.94;102506.97;5072675;28;20396;-47
2022/11/17 07:08:33;;;;;;;2.85;1.90;;;;;;;8.43;50.73;102507.31;5071599;28;20020;-45
2022/11/17 07:11:10;;;;;;;4.57;1.77;;;;;;;8.38;51.24;102509.59;5072549;28;20044;-45
2022/11/17 07:13:37;;;;;;;2.63;2.05;;;;;;;8.21;51.71;102509.38;5071593;28;20512;-45
2022/11/17 07:16:09;;;;;;;3.38;2.15;;;;;;;8.16;51.94;102502.81;5072433;28;20025;-48
2022/11/17 07:18:37;;;;;;;3.67;1.90;;;;;;;8.17;52.35;102504.53;5071855;28;20388;-46
2022/11/17 07:21:05;;;;;;;4.07;2.15;;;;;;;8.16;53.27;102498.34;5072448;28;20028;-46
2022/11/17 07:23:33;;;;;;;4.22;2.30;;;;;;;8.06;53.76;102499.41;5071697;28;20079;-46
2022/11/17 07:26:00;;;;;;;4.03;2.75;;;;;;;8.09;54.15;102504.41;5072108;28;20488;-45
2022/11/17 07:28:27;;;;;;;4.43;2.92;;;;;;;8.10;55.09;102504.25;5071004;28;20064;-46
2022/11/17 07:30:54;;;;;;;3.58;2.40;;;;;;;8.14;55.09;102510.16;5072160;28;20036;-46
2022/11/17 07:33:20;;;;;;;2.67;2.28;;;;;;;7.92;54.99;102503.38;5071260;28;20047;-45
2022/11/17 07:35:47;;;;;;;3.63;2.60;;;;;;;7.80;55.58;102505.41;5072179;28;20024;-45
2022/11/17 07:38:14;;;;;;;5.07;2.70;;;;;;;7.73;55.72;102503.47;5071211;28;20025;-47
2022/11/17 07:40:40;;;;;;;3.53;2.42;;;;;;;7.65;56.16;102494.38;5071954;28;20473;-45
2022/11/17 07:43:06;;;;;;;4.90;2.42;;;;;;;7.68;56.13;102499.41;5065554;28;20025;-44
2022/11/17 07:45:33;;;;;;;4.05;2.47;;;;;;;7.59;56.25;102497.63;5070320;28;20123;-46
2022/11/17 07:48:01;;;;;;;5.28;2.53;;;;;;;7.54;56.30;102497.22;5070671;28;20078;-48
2022/11/17 07:50:28;;;;;;;3.33;2.28;;;;;;;7.47;56.19;102498.78;5072075;28;20473;-45
2022/11/17 07:52:56;;;;;;;4.47;2.45;;;;;;;7.44;56.25;102498.22;5071046;28;20082;-48
2022/11/17 07:55:24;;;;;;;4.28;2.00;;;;;;;7.36;56.26;102496.28;5071467;28;20112;-46
2022/11/17 07:58:08;;;;;;;2.47;2.00;;;;;;;7.26;56.24;102495.47;5071765;28;20071;-48
2022/11/17 08:00:35;;;;;;;4.15;2.08;;;;;;;7.31;56.05;102503.88;5071833;28;20044;-45
2022/11/17 08:03:05;;;;;;;2.83;1.90;;;;;;;7.29;56.14;102501.38;5071095;28;20538;-47
2022/11/17 08:05:35;;;;;;;2.95;2.10;;;;;;;7.21;56.37;102503.06;5071669;28;20033;-47
2022/11/17 08:08:01;;;;;;;2.78;2.00;;;;;;;7.15;56.29;102499.97;5070293;28;20515;-48
2022/11/17 08:10:30;;;;;;;3.53;2.22;;;;;;;7.12;56.24;102505.59;5071555;28;20036;-46
2022/11/17 08:13:00;;;;;;;2.67;1.88;;;;;;;7.08;56.93;102504.19;5070186;28;20146;-45
2022/11/17 08:15:28;;;;;;;3.53;1.85;;;;;;;7.08;56.87;102496.22;5070123;28;20497;-45
2022/11/17 08:17:58;;;;;;;3.45;2.00;;;;;;;7.06;57.16;102500.00;5070412;28;20426;-47
2022/11/17 08:20:26;;;;;;;5.63;2.03;;;;;;;7.05;57.02;102495.66;5071927;28;20134;-49
2022/11/17 08:22:53;;;;;;;6.28;2.20;;;;;;;7.02;57.10;102504.78;5070689;28;20044;-45
2022/11/17 08:25:21;;;;;;;5.40;2.15;;;;;;;7.01;57.11;102503.09;5071674;28;20153;-44
2022/11/17 08:27:50;;;;;;;3.83;1.45;;;;;;;7.00;56.95;102495.25;5069747;28;20067;-46
2022/11/17 08:30:20;;;;;;;3.30;1.75;;;;;;;6.97;56.93;102490.22;5070239;28;20076;-47
2022/11/17 08:32:51;;;;;;;3.63;1.80;;;;;;;6.94;57.15;102486.03;5070405;28;20032;-46
2022/11/17 08:35:23;;;;;;;4.15;2.15;;;;;;;6.93;57.32;102479.00;5071849;28;20035;-48
2022/11/17 08:37:49;;;;;;;4.60;1.90;;;;;;;6.98;57.47;102478.56;5071427;28;20119;-45
2022/11/17 08:40:17;;;;;;;3.15;2.30;;;;;;;6.88;58.08;102476.78;5071352;28;20451;-49
2022/11/17 08:42:43;;;;;;;3.70;1.90;;;;;;;6.98;58.07;102475.91;5069860;28;20450;-46
2022/11/17 08:45:09;;;;;;;2.00;1.63;;;;;;;6.81;58.30;102474.81;5071043;28;20448;-45
2022/11/17 08:47:37;;;;;;;2.30;1.90;;;;;;;6.71;58.77;102481.94;5070331;28;20048;-46
2022/11/17 08:50:07;;;;;;;3.75;2.13;;;;;;;6.69;58.90;102478.59;5071364;28;20430;-46
2022/11/17 08:52:33;;;;;;;2.70;2.20;;;;;;;6.62;58.91;102478.31;5069754;28;20067;-45
2022/11/17 08:54:59;;;;;;;5.47;1.92;;;;;;;6.63;59.14;102481.81;5070966;28;20064;-47
2022/11/17 08:57:27;;;;;;;2.67;1.85;;;;;;;6.56;59.53;102476.22;5070101;28;20087;-48
2022/11/17 08:59:54;;;;;;;2.95;2.00;;;;;;;6.58;59.37;102484.91;5071106;28;20040;-47
2022/11/17 09:02:20;;;;;;;2.90;1.77;;;;;;;6.85;59.66;102482.38;5069590;28;20033;-47
2022/11/17 09:04:46;;;;;;;6.55;2.28;;;;;;;6.68;59.98;102479.59;5071293;28;20056;-45
2022/11/17 09:07:12;;;;;;;2.83;2.08;;;;;;;6.38;61.56;102477.88;5070011;28;20439;-47
2022/11/17 09:09:39;;;;;;;2.72;2.22;;;;;;;6.30;61.92;102470.59;5071137;28;20063;-49
2022/11/17 09:12:05;;;;;;;3.80;2.30;;;;;;;6.12;62.46;102483.72;5069462;28;20027;-49
2022/11/17 09:14:31;;;;;;;3.33;2.35;;;;;;;6.17;61.99;102485.97;5070953;28;20049;-49
2022/11/17 09:16:58;;;;;;;3.03;2.10;;;;;;;6.13;62.24;102479.25;5069314;28;20021;-48
2022/11/17 09:19:24;;;;;;;1.98;1.80;;;;;;;6.15;62.49;102478.13;5070810;28;20012;-49
2022/11/17 09:21:50;;;;;;;4.55;2.22;;;;;;;6.15;61.96;102479.94;5069091;28;20025;-47
2022/11/17 09:24:17;;;;;;;4.47;2.22;;;;;;;6.32;62.31;102485.41;5070956;28;20017;-48
2022/11/17 09:26:43;;;;;;;3.35;2.00;;;;;;;6.42;61.87;102490.75;5069885;28;20063;-48
2022/11/17 09:29:09;;;;;;;3.55;2.25;;;;;;;6.12;62.85;102493.53;5071571;28;20401;-49
2022/11/17 09:31:36;;;;;;;4.88;2.22;;;;;;;5.71;64.42;102488.16;5073287;28;20397;-48
2022/11/17 09:34:03;;;;;;;3.13;1.75;;;;;;;5.63;64.72;102482.69;5074715;28;20025;-49
2022/11/17 09:36:29;;;;;;;5.75;2.55;;;;;;;5.99;63.87;102480.47;5073473;28;20082;-45
2022/11/17 09:38:55;;;;;;;2.67;2.10;;;;;;;6.11;63.23;102478.53;5054410;28;20120;-46
2022/11/17 09:41:43;;;;;;;5.35;2.47;;;;;;;5.95;63.44;102471.94;5060573;28;20064;-48
2022/11/17 09:44:33;;;;;;;3.03;2.10;;;;;;;6.04;63.01;102465.78;5072851;28;20036;-46
2022/11/17 09:47:07;;;;;;;3.53;2.40;;;;;;;6.09;62.77;102460.91;5072964;28;20060;-47
2022/11/17 09:50:02;;;;;;;5.20;2.35;;;;;;;6.03;63.06;102464.09;5074223;28;20038;-46
2022/11/17 09:52:42;;;;;;;8.05;1.95;;;;;;;6.11;63.02;102467.88;5073013;28;20033;-48
2022/11/17 09:55:08;;;;;;;2.83;1.95;;;;;;;5.92;63.28;102469.53;5074440;28;20024;-48
2022/11/17 09:57:49;;;;;;;2.53;1.85;;;;;;;5.83;63.36;102462.34;5072666;28;20024;-47
2022/11/17 10:00:22;;;;;;;4.90;2.38;;;;;;;5.94;63.08;102464.94;5074528;28;20040;-46
2022/11/17 10:02:50;;;;;;;6.65;2.45;;;;;;;6.18;62.86;102456.59;5073322;28;20033;-46
2022/11/17 10:05:25;;;;;;;10.93;2.30;;;;;;;5.99;63.62;102469.81;5074318;28;20021;-45
2022/11/17 10:07:53;;;;;;;3.35;2.13;;;;;;;5.70;64.59;102465.22;5072503;28;20086;-47
2022/11/17 10:10:35;;;;;;;2.35;2.13;;;;;;;5.76;64.18;102462.03;5074009;28;20064;-45
2022/11/17 10:13:05;;;;;;;3.50;1.92;;;;;;;5.86;64.08;102470.03;5056535;28;20117;-48
2022/11/17 10:15:52;;;;;;;2.97;1.67;;;;;;;5.62;64.81;102465.06;5053571;28;20044;-48
2022/11/17 10:18:18;;;;;;;3.55;1.85;;;;;;;5.41;65.73;102461.63;5054901;28;20021;-45
2022/11/17 10:20:45;;;;;;;3.75;1.92;;;;;;;5.30;66.19;102465.19;5057182;28;20017;-49
2022/11/17 10:23:17;;;;;;;3.03;1.77;;;;;;;5.42;65.74;102464.13;5053495;28;20075;-48
2022/11/17 10:25:55;;;;;;;3.22;2.08;;;;;;;5.66;65.22;102457.66;5053459;28;20036;-48
2022/11/17 10:28:30;;;;;;;3.33;2.17;;;;;;;5.66;65.27;102453.19;5053883;28;20423;-47
2022/11/17 10:31:03;;;;;;;2.65;1.75;;;;;;;5.60;65.15;102468.81;5053292;28;20465;-46
2022/11/17 10:33:36;;;;;;;2.22;1.73;;;;;;;5.71;64.98;102460.75;5053349;28;20085;-47
2022/11/17 10:36:05;;;;;;;3.67;1.50;;;;;;;5.73;64.57;102459.66;5055423;28;20063;-47
2022/11/17 10:38:33;;;;;;;3.47;2.00;;;;;;;5.69;64.35;102460.06;5054987;28;20033;-48
2022/11/17 10:41:01;;;;;;;2.25;1.63;;;;;;;5.70;64.48;102461.72;5052821;28;20032;-45
2022/11/17 10:43:35;;;;;;;2.22;2.00;;;;;;;5.82;65.48;102458.00;5053217;28;20025;-48
2022/11/17 10:46:13;;;;;;;5.68;2.35;;;;;;;5.68;68.23;102455.72;5053399;28;20112;-45
2022/11/17 10:48:56;;;;;;;4.78;3.10;;;;;;;5.67;69.33;102454.88;5053369;28;20025;-48
2022/11/17 10:51:25;;;;;;;3.70;2.30;;;;;;;5.88;68.96;102454.78;5060173;28;20029;-46
2022/11/17 10:54:15;;;;;;;4.30;2.50;;;;;;;5.78;68.85;102459.25;5073065;28;20103;-48
2022/11/17 10:56:50;;;;;;;6.22;3.40;;;;;;;5.77;68.48;102463.75;5073005;28;20032;-45
2022/11/17 10:59:29;;;;;;;5.53;3.60;;;;;;;5.63;69.06;102457.94;5073227;28;20082;-48
2022/11/17 11:01:56;;;;;;;5.10;3.35;;;;;;;5.97;69.69;102456.69;5072684;28;20372;-49
2022/11/17 11:04:31;;;;;;;6.95;3.17;;;;;;;6.04;69.98;102459.63;5063471;22;20143;-49
2022/11/17 11:07:32;;;;;;;4.75;3.05;;;;;;;6.14;69.62;102462.31;5051806;28;20086;-47
2022/11/17 11:10:32;;;;;;;5.50;3.58;;;;;;;5.98;70.77;102457.50;5049805;28;20041;-49
2022/11/17 11:13:42;;;;;;;5.78;3.10;;;;;;;5.79;71.29;102452.97;5047803;28;20040;-45
2022/11/17 11:16:11;;;;;;;10.25;3.42;;;;;;;5.62;71.59;102450.94;5031546;28;20498;-45
2022/11/17 11:18:38;;;;;;;6.32;3.80;;;;;;;5.74;72.09;102445.41;5049253;28;20032;-45
2022/11/17 11:21:20;;;;;;;5.90;4.15;;;;;;;5.53;72.61;102440.13;5049776;28;20033;-45
2022/11/17 11:23:52;;;;;;;4.45;3.42;;;;;;;5.49;73.40;102430.75;5037876;28;20060;-47
2022/11/17 11:26:41;;;;;;;5.65;3.33;;;;;;;5.84;72.75;102434.81;5052862;28;20053;-48
2022/11/17 11:29:45;;;;;;;6.43;4.50;;;;;;;6.00;71.69;102427.19;5051470;28;20025;-45
2022/11/17 11:32:26;;;;;;;6.82;4.10;;;;;;;6.04;70.34;102427.72;5033472;28;20113;-46
2022/11/17 11:35:02;;;;;;;4.70;3.70;;;;;;;5.81;70.59;102427.94;5033005;28;20226;-47
2022/11/17 11:37:47;;;;;;;4.97;3.38;;;;;;;5.86;71.03;102432.84;5035534;28;20593;-45
2022/11/17 11:40:20;;;;;;;6.40;3.38;;;;;;;5.94;70.75;102427.72;5036047;28;20486;-46
2022/11/17 11:42:50;;;;;;;6.55;3.83;;;;;;;6.19;69.42;102430.84;5033035;28;20060;-46
2022/11/17 11:45:23;;;;;;;5.72;3.53;;;;;;;6.04;68.66;102423.25;5037085;28;20030;-48
2022/11/17 11:48:18;;;;;;;4.40;3.33;;;;;;;6.12;67.62;102427.06;5051887;28;20029;-45
2022/11/17 11:50:50;;;;;;;6.80;3.00;;;;;;;5.87;67.30;102421.22;5038906;28;20231;-46
2022/11/17 11:53:22;;;;;;;5.00;2.85;;;;;;;5.97;66.92;102422.13;5051231;28;20082;-48
2022/11/17 11:56:12;;;;;;;4.65;2.88;;;;;;;5.98;66.33;102428.28;5049261;28;20034;-45
2022/11/17 11:58:52;;;;;;;6.05;3.50;;;;;;;5.93;65.78;102423.38;5028613;28;20041;-45
2022/11/17 12:01:21;;;;;;;6.25;2.90;;;;;;;5.91;65.79;102424.47;5031696;28;20021;-46
2022/11/17 12:04:28;;;;;;;4.43;2.63;;;;;;;5.51;67.03;102420.84;5031688;28;20155;-49
2022/11/17 12:07:10;;;;;;;2.72;2.28;;;;;;;5.67;66.43;102425.66;4988123;28;20120;-48
2022/11/17 12:10:03;;;;;;;2.72;1.98;;;;;;;5.44;66.92;102414.41;5031827;28;20022;-46
2022/11/17 12:12:38;;;;;;;4.75;2.05;;;;;;;5.50;65.72;102413.88;5027066;28;20103;-45
2022/11/17 12:15:07;;;;;;;4.15;2.03;;;;;;;5.77;64.28;102421.22;5050427;28;20040;-49